Ag Nektarios Aiginas — SX7083 — position and weather

sailwx.info

Track history (hours):
 
Tides and Currents Weather Stations Pressure Air Temp Water Temp Dewpoint Dewpoint Depression Visibility Wind Speed Wind Dir Waves Ship Positions

Ag Nektarios Aiginas

Last reported at 2017-Aug-16 17:27 UTC. Time now 2017-Aug-16 21:51 UTC.
Position N 37°57' E 023°39'.

Length 75 m; draft 2.7 m.

Type: Passenger vessel. MMSI: 237021400.

Date/timePositionNaut miles runAvg speedWind from/ knotsBaromVisibWave heightAir tempDewpointWater temp
2017-Aug-16 17:27N 37°57' E 023°39'1 2.3
2017-Aug-16 17:00N 37°56' E 023°37'612.6
2017-Aug-16 16:31N 37°51' E 023°32'612.7
2017-Aug-16 16:00N 37°47' E 023°26'2 4.9
2017-Aug-16 15:30N 37°45' E 023°26'0 0.4
2017-Aug-16 15:00N 37°45' E 023°25'611.7
2017-Aug-16 14:31N 37°49' E 023°30'713.3
2017-Aug-16 14:01N 37°54' E 023°35'3 7.0
2017-Aug-16 13:31N 37°57' E 023°39'2 4.4
2017-Aug-16 13:00N 37°55' E 023°36'612.4
2017-Aug-16 12:30N 37°50' E 023°32'612.6
2017-Aug-16 12:00N 37°46' E 023°25'2 2.8
2017-Aug-16 11:26N 37°45' E 023°26'0 0.1
2017-Aug-16 11:00N 37°45' E 023°25'5 9.9
2017-Aug-16 10:30N 37°49' E 023°29'713.2
2017-Aug-16 10:00N 37°54' E 023°35'4 8.5
2017-Aug-16 09:30N 37°57' E 023°38'0 0.0
2017-Aug-16 09:01N 37°57' E 023°38'5 9.3
2017-Aug-16 08:31N 37°53' E 023°35'612.4
2017-Aug-16 08:00N 37°49' E 023°29'5 9.7
2017-Aug-16 07:30N 37°45' E 023°25'0 0.1
2017-Aug-16 06:59N 37°45' E 023°25'2 4.8
2017-Aug-16 06:30N 37°47' E 023°26'613.0
2017-Aug-16 06:00N 37°51' E 023°32'713.0
2017-Aug-16 05:30N 37°56' E 023°37'1 2.1
2017-Aug-16 05:01N 37°57' E 023°39'0 0.0
2017-Aug-16 04:30N 37°57' E 023°39'0 0.0
2017-Aug-15 16:57N 37°57' E 023°39'2 3.7
2017-Aug-15 16:31N 37°56' E 023°37'612.6
2017-Aug-15 16:01N 37°51' E 023°32'713.1
2017-Aug-15 15:31N 37°47' E 023°26'2 3.0
2017-Aug-15 14:53N 37°45' E 023°26'1 3.2
2017-Aug-15 14:31N 37°46' E 023°25'612.9
2017-Aug-15 14:00N 37°50' E 023°31'713.1
2017-Aug-15 13:30N 37°55' E 023°36'2 4.8
2017-Aug-15 13:00N 37°57' E 023°38'0 0.1
2017-Aug-15 12:31N 37°57' E 023°38'510.9
2017-Aug-15 12:01N 37°53' E 023°34'713.1
2017-Aug-15 11:31N 37°48' E 023°28'4 7.5
2017-Aug-15 11:00N 37°45' E 023°25'1 2.5
2017-Aug-15 10:30N 37°46' E 023°25'613.0
2017-Aug-15 10:01N 37°50' E 023°31'713.1
2017-Aug-15 09:30N 37°55' E 023°36'2 4.9
2017-Aug-15 09:01N 37°57' E 023°38'1 2.9
2017-Aug-15 08:30N 37°56' E 023°37'612.3
2017-Aug-15 08:01N 37°51' E 023°33'612.8
2017-Aug-15 07:30N 37°47' E 023°26'2 4.6
2017-Aug-15 07:00N 37°45' E 023°26'2 4.2
2017-Aug-15 06:30N 37°47' E 023°26'612.8
2017-Aug-15 06:00N 37°51' E 023°32'612.9
2017-Aug-15 05:30N 37°56' E 023°37'1 2.3
2017-Aug-15 05:00N 37°57' E 023°38'0 0.0
2017-Aug-15 04:31N 37°57' E 023°38'0 0.0
2017-Aug-14 16:56N 37°57' E 023°38'2 3.6
2017-Aug-14 16:31N 37°56' E 023°37'713.3
2017-Aug-14 16:01N 37°51' E 023°32'612.9
2017-Aug-14 15:31N 37°46' E 023°25'2 3.2
2017-Aug-14 14:58N 37°45' E 023°26'2 5.3
2017-Aug-14 14:30N 37°47' E 023°27'613.0
2017-Aug-14 14:00N 37°51' E 023°33'612.6
2017-Aug-14 13:30N 37°56' E 023°37'1 1.8
2017-Aug-14 13:01N 37°57' E 023°38'1 1.0
2017-Aug-14 12:31N 37°56' E 023°38'612.7
2017-Aug-14 12:01N 37°51' E 023°33'713.1
2017-Aug-14 11:30N 37°47' E 023°26'3 5.3
2017-Aug-14 11:00N 37°45' E 023°25'3 6.3
2017-Aug-14 10:30N 37°48' E 023°27'613.0
2017-Aug-14 10:01N 37°52' E 023°33'612.2
2017-Aug-14 09:30N 37°57' E 023°38'0 0.6
2017-Aug-14 09:00N 37°57' E 023°38'3 6.3
2017-Aug-14 08:30N 37°54' E 023°36'612.7
2017-Aug-14 08:01N 37°50' E 023°31'612.3
2017-Aug-14 07:31N 37°45' E 023°25'1 1.7
2017-Aug-14 07:00N 37°45' E 023°25'2 4.4
2017-Aug-14 06:30N 37°47' E 023°26'613.1
2017-Aug-14 06:01N 37°51' E 023°32'613.0
2017-Aug-14 05:30N 37°56' E 023°37'1 2.2
2017-Aug-14 05:00N 37°57' E 023°38'0 0.0
2017-Aug-14 04:31N 37°57' E 023°38'0 0.0
2017-Aug-13 20:12N 37°57' E 023°38'0 0.3
2017-Aug-13 20:00N 37°57' E 023°38'611.4
2017-Aug-13 19:30N 37°52' E 023°34'612.8
2017-Aug-13 19:00N 37°48' E 023°28'4 7.3
2017-Aug-13 18:30N 37°45' E 023°25'1 1.6
2017-Aug-13 18:00N 37°45' E 023°25'612.6
2017-Aug-13 17:30N 37°50' E 023°30'713.2
2017-Aug-13 17:00N 37°55' E 023°36'3 5.9
2017-Aug-13 16:30N 37°57' E 023°39'4 7.4
2017-Aug-13 16:00N 37°54' E 023°35'612.9
2017-Aug-13 15:30N 37°49' E 023°30'611.5
2017-Aug-13 15:01N 37°45' E 023°25'0 0.5
2017-Aug-13 14:30N 37°45' E 023°26'2 4.2
2017-Aug-13 14:00N 37°47' E 023°26'712.9
2017-Aug-13 13:30N 37°51' E 023°32'612.9
2017-Aug-13 13:00N 37°56' E 023°37'1 2.2
2017-Aug-13 12:30N 37°57' E 023°38'0 0.8
2017-Aug-13 12:00N 37°57' E 023°38'612.5
2017-Aug-13 11:30N 37°52' E 023°33'713.1
2017-Aug-13 11:00N 37°47' E 023°27'3 5.7
2017-Aug-13 10:30N 37°45' E 023°25'0 0.0
2017-Aug-13 10:00N 37°45' E 023°25'4 8.6
2017-Aug-13 09:30N 37°48' E 023°29'713.0
2017-Aug-13 09:00N 37°53' E 023°34'510.1
2017-Aug-13 08:30N 37°57' E 023°38'0 0.0
2017-Aug-13 08:00N 37°57' E 023°38'0 0.0
2017-Aug-13 07:30N 37°57' E 023°38'0 0.0
2017-Aug-12 17:35N 37°57' E 023°38'0 0.1
2017-Aug-12 17:30N 37°57' E 023°38'4 7.6
2017-Aug-12 17:00N 37°54' E 023°35'613.0
2017-Aug-12 16:31N 37°49' E 023°30'611.3
2017-Aug-12 16:00N 37°45' E 023°25'0 0.5
2017-Aug-12 15:30N 37°45' E 023°26'4 7.7
2017-Aug-12 15:00N 37°48' E 023°28'713.0
2017-Aug-12 14:30N 37°53' E 023°34'511.0
2017-Aug-12 14:00N 37°57' E 023°39'0 0.0
2017-Aug-12 13:30N 37°57' E 023°39'2 4.6
2017-Aug-12 13:00N 37°55' E 023°36'713.0
2017-Aug-12 12:30N 37°50' E 023°31'713.0
2017-Aug-12 12:00N 37°46' E 023°25'1 2.7
2017-Aug-12 11:30N 37°45' E 023°26'2 4.9
2017-Aug-12 11:00N 37°47' E 023°27'613.0
2017-Aug-12 10:30N 37°52' E 023°32'612.7
2017-Aug-12 10:00N 37°56' E 023°38'1 1.6
2017-Aug-12 09:30N 37°57' E 023°39'0 0.0
2017-Aug-12 09:00N 37°57' E 023°39'2 4.1
2017-Aug-12 08:30N 37°55' E 023°36'713.1
2017-Aug-12 08:00N 37°50' E 023°31'713.2
2017-Aug-12 07:30N 37°46' E 023°25'1 2.8
2017-Aug-12 07:00N 37°45' E 023°26'3 5.9
2017-Aug-12 06:30N 37°47' E 023°27'612.8
2017-Aug-12 06:00N 37°52' E 023°33'612.4
2017-Aug-12 05:30N 37°57' E 023°38'0 0.7
2017-Aug-12 05:00N 37°57' E 023°39'0 0.0
2017-Aug-12 04:30N 37°57' E 023°39'0 0.0
2017-Aug-11 17:35N 37°57' E 023°39'0 0.0
2017-Aug-11 17:30N 37°57' E 023°39'3 5.6
2017-Aug-11 17:00N 37°55' E 023°36'612.8
2017-Aug-11 16:30N 37°50' E 023°31'612.8
2017-Aug-11 16:00N 37°46' E 023°25'1 2.1
2017-Aug-11 15:30N 37°45' E 023°25'2 4.4
2017-Aug-11 14:58N 37°47' E 023°26'1313.1
2017-Aug-11 14:00N 37°56' E 023°37'1 2.1
2017-Aug-11 13:30N 37°57' E 023°38'0 0.6
2017-Aug-11 13:00N 37°57' E 023°38'611.8
2017-Aug-11 12:30N 37°52' E 023°33'612.7
2017-Aug-11 12:00N 37°48' E 023°28'3 6.7
2017-Aug-11 11:30N 37°45' E 023°26'0 0.0
2017-Aug-11 11:00N 37°45' E 023°26'5 9.5
2017-Aug-11 10:30N 37°48' E 023°29'713.3
2017-Aug-11 10:00N 37°54' E 023°34'5 9.1
2017-Aug-11 09:30N 37°57' E 023°38'0 0.0
2017-Aug-11 09:00N 37°57' E 023°38'3 5.8
2017-Aug-11 08:30N 37°55' E 023°36'612.4
2017-Aug-11 08:00N 37°50' E 023°31'612.5
2017-Aug-11 07:30N 37°46' E 023°25'1 2.5
2017-Aug-11 07:00N 37°45' E 023°25'2 4.3
2017-Aug-11 06:30N 37°47' E 023°26'613.0
2017-Aug-11 06:00N 37°51' E 023°33'713.1
2017-Aug-11 05:30N 37°56' E 023°37'1 2.2
2017-Aug-11 05:00N 37°57' E 023°38'0 0.0
2017-Aug-11 04:30N 37°57' E 023°38'0 0.0
2017-Aug-10 17:19N 37°57' E 023°38'0 0.5
2017-Aug-10 17:00N 37°57' E 023°38'612.2
2017-Aug-10 16:30N 37°52' E 023°33'613.0
2017-Aug-10 16:00N 37°48' E 023°27'3 6.4
2017-Aug-10 15:30N 37°45' E 023°25'0 0.0
2017-Aug-10 15:00N 37°45' E 023°25'4 7.9
2017-Aug-10 14:30N 37°48' E 023°28'613.0
2017-Aug-10 14:00N 37°53' E 023°34'510.9
2017-Aug-10 13:30N 37°57' E 023°39'0 0.1
2017-Aug-10 13:00N 37°57' E 023°39'611.0
2017-Aug-10 12:30N 37°53' E 023°34'612.8
2017-Aug-10 12:00N 37°48' E 023°28'4 6.6
2017-Aug-10 11:25N 37°45' E 023°26'1 1.8
2017-Aug-10 11:00N 37°45' E 023°25'612.7
2017-Aug-10 10:30N 37°50' E 023°31'713.1
2017-Aug-10 10:00N 37°55' E 023°36'3 5.8
2017-Aug-10 09:30N 37°57' E 023°38'0 0.0
2017-Aug-10 09:00N 37°57' E 023°38'5 9.7
2017-Aug-10 08:30N 37°53' E 023°35'612.4
2017-Aug-10 08:00N 37°49' E 023°29'5 9.4
2017-Aug-10 07:30N 37°45' E 023°25'0 0.1
2017-Aug-10 07:00N 37°45' E 023°25'2 4.5
2017-Aug-10 06:30N 37°47' E 023°26'613.0
2017-Aug-10 06:00N 37°51' E 023°32'613.0
2017-Aug-10 05:30N 37°56' E 023°37'1 2.1
2017-Aug-10 05:00N 37°57' E 023°38'0 0.0
2017-Aug-10 04:30N 37°57' E 023°38'0 0.0
2017-Aug-09 17:04N 37°57' E 023°38'0 0.0
2017-Aug-09 17:00N 37°57' E 023°38'3 5.3
2017-Aug-09 16:30N 37°55' E 023°36'612.8
2017-Aug-09 16:00N 37°50' E 023°31'612.7
2017-Aug-09 15:30N 37°46' E 023°25'1 2.7
2017-Aug-09 15:00N 37°45' E 023°25'2 3.6
2017-Aug-09 14:30N 37°46' E 023°26'613.0
2017-Aug-09 14:00N 37°51' E 023°32'713.0
2017-Aug-09 13:30N 37°56' E 023°37'2 3.1
2017-Aug-09 13:00N 37°57' E 023°39'2 3.0
2017-Aug-09 12:30N 37°56' E 023°37'612.6
2017-Aug-09 12:00N 37°51' E 023°32'612.7
2017-Aug-09 11:30N 37°47' E 023°26'2 4.3
2017-Aug-09 11:00N 37°45' E 023°25'2 3.9
2017-Aug-09 10:30N 37°47' E 023°26'612.9
2017-Aug-09 10:00N 37°51' E 023°32'612.9
2017-Aug-09 09:30N 37°56' E 023°37'2 3.1
2017-Aug-09 09:00N 37°57' E 023°39'1 2.9
2017-Aug-09 08:30N 37°56' E 023°37'612.7
2017-Aug-09 08:00N 37°51' E 023°33'612.6
2017-Aug-09 07:30N 37°47' E 023°26'2 3.3
2017-Aug-09 06:51N 37°45' E 023°25'2 7.2
2017-Aug-09 06:30N 37°47' E 023°27'612.9
2017-Aug-09 06:00N 37°51' E 023°33'612.9
2017-Aug-09 05:30N 37°56' E 023°38'1 1.4
2017-Aug-09 05:00N 37°57' E 023°38'0 0.0
2017-Aug-09 04:30N 37°57' E 023°38'0 0.0
2017-Aug-08 17:16N 37°57' E 023°38'0 0.7
2017-Aug-08 17:00N 37°57' E 023°38'510.5
2017-Aug-08 16:30N 37°53' E 023°34'612.9
2017-Aug-08 16:00N 37°48' E 023°28'4 3.4
2017-Aug-08 14:51N 37°45' E 023°25'2 6.0
2017-Aug-08 14:30N 37°47' E 023°26'713.1
2017-Aug-08 14:00N 37°51' E 023°33'713.2
2017-Aug-08 13:30N 37°56' E 023°37'1 1.9
2017-Aug-08 13:00N 37°57' E 023°38'4 7.4
2017-Aug-08 12:30N 37°54' E 023°35'612.4
2017-Aug-08 12:00N 37°49' E 023°30'611.9
2017-Aug-08 11:30N 37°45' E 023°25'1 1.0
2017-Aug-08 10:59N 37°45' E 023°25'4 8.4
2017-Aug-08 10:30N 37°48' E 023°29'713.1
2017-Aug-08 10:00N 37°53' E 023°34'510.4
2017-Aug-08 09:30N 37°57' E 023°39'0 0.0
2017-Aug-08 09:00N 37°57' E 023°39'3 6.7
2017-Aug-08 08:30N 37°54' E 023°35'612.4
2017-Aug-08 08:00N 37°49' E 023°31'611.9
2017-Aug-08 07:30N 37°46' E 023°25'1 1.6
2017-Aug-08 06:49N 37°45' E 023°25'2 5.4
2017-Aug-08 06:30N 37°46' E 023°26'713.2
2017-Aug-08 06:00N 37°51' E 023°32'713.3
2017-Aug-08 05:30N 37°56' E 023°37'1 2.8
2017-Aug-08 05:00N 37°57' E 023°38'0 0.0
2017-Aug-08 04:30N 37°57' E 023°38'0 0.0
2017-Aug-07 17:16N 37°57' E 023°38'0 0.7
2017-Aug-07 17:01N 37°57' E 023°38'612.4
2017-Aug-07 16:31N 37°52' E 023°33'613.0
2017-Aug-07 16:01N 37°48' E 023°27'3 6.2
2017-Aug-07 15:31N 37°45' E 023°26'0 0.0
2017-Aug-07 15:01N 37°45' E 023°26'4 8.2
2017-Aug-07 14:31N 37°48' E 023°29'713.0
2017-Aug-07 14:01N 37°53' E 023°34'510.3
2017-Aug-07 13:31N 37°57' E 023°39'1 1.1
2017-Aug-07 13:00N 37°56' E 023°38'612.7
2017-Aug-07 12:31N 37°51' E 023°33'713.1
2017-Aug-07 12:01N 37°47' E 023°27'3 5.0
2017-Aug-07 11:28N 37°45' E 023°26'2 3.5
2017-Aug-07 11:00N 37°46' E 023°26'612.9
2017-Aug-07 10:31N 37°50' E 023°32'612.9
2017-Aug-07 10:01N 37°56' E 023°37'2 3.5
2017-Aug-07 09:30N 37°57' E 023°38'0 0.6
2017-Aug-07 09:00N 37°57' E 023°38'612.7
2017-Aug-07 08:31N 37°52' E 023°33'713.2
2017-Aug-07 08:01N 37°47' E 023°27'3 5.4
2017-Aug-07 07:30N 37°45' E 023°25'0 0.0
2017-Aug-07 07:00N 37°45' E 023°25'4 7.3
2017-Aug-07 06:31N 37°48' E 023°28'612.8
2017-Aug-07 06:00N 37°52' E 023°34'611.6
2017-Aug-07 05:31N 37°57' E 023°38'0 0.1
2017-Aug-07 05:01N 37°57' E 023°38'0 0.0
2017-Aug-07 04:30N 37°57' E 023°38'0 0.0
2017-Aug-06 20:11N 37°57' E 023°38'0 0.0
2017-Aug-06 20:01N 37°57' E 023°38'4 8.8
2017-Aug-06 19:31N 37°53' E 023°35'612.8
2017-Aug-06 19:00N 37°49' E 023°29'5 9.8
2017-Aug-06 18:30N 37°45' E 023°26'0 0.0
2017-Aug-06 17:58N 37°45' E 023°26'0 0.3
2017-Aug-06 17:31N 37°45' E 023°25'  
Track history (hours):
 
Tides and Currents Weather Stations Pressure Air Temp Water Temp Dewpoint Dewpoint Depression Visibility Wind Speed Wind Dir Waves Ship Positions

Ag Nektarios Aiginas

Last reported at 2017-Aug-16 17:27 UTC. Time now 2017-Aug-16 21:51 UTC.
Position N 37°57' E 023°39'.

Length 75 m; draft 2.7 m.

Type: Passenger vessel. MMSI: 237021400.

Date/timePositionNaut miles runAvg speedWind from/ knotsBaromVisibWave heightAir tempDewpointWater temp
2017-Aug-16 17:27N 37°57' E 023°39'1 2.3
2017-Aug-16 17:00N 37°56' E 023°37'612.6
2017-Aug-16 16:31N 37°51' E 023°32'612.7
2017-Aug-16 16:00N 37°47' E 023°26'2 4.9
2017-Aug-16 15:30N 37°45' E 023°26'0 0.4
2017-Aug-16 15:00N 37°45' E 023°25'611.7
2017-Aug-16 14:31N 37°49' E 023°30'713.3
2017-Aug-16 14:01N 37°54' E 023°35'3 7.0
2017-Aug-16 13:31N 37°57' E 023°39'2 4.4
2017-Aug-16 13:00N 37°55' E 023°36'612.4
2017-Aug-16 12:30N 37°50' E 023°32'612.6
2017-Aug-16 12:00N 37°46' E 023°25'2 2.8
2017-Aug-16 11:26N 37°45' E 023°26'0 0.1
2017-Aug-16 11:00N 37°45' E 023°25'5 9.9
2017-Aug-16 10:30N 37°49' E 023°29'713.2
2017-Aug-16 10:00N 37°54' E 023°35'4 8.5
2017-Aug-16 09:30N 37°57' E 023°38'0 0.0
2017-Aug-16 09:01N 37°57' E 023°38'5 9.3
2017-Aug-16 08:31N 37°53' E 023°35'612.4
2017-Aug-16 08:00N 37°49' E 023°29'5 9.7
2017-Aug-16 07:30N 37°45' E 023°25'0 0.1
2017-Aug-16 06:59N 37°45' E 023°25'2 4.8
2017-Aug-16 06:30N 37°47' E 023°26'613.0
2017-Aug-16 06:00N 37°51' E 023°32'713.0
2017-Aug-16 05:30N 37°56' E 023°37'1 2.1
2017-Aug-16 05:01N 37°57' E 023°39'0 0.0
2017-Aug-16 04:30N 37°57' E 023°39'0 0.0
2017-Aug-15 16:57N 37°57' E 023°39'2 3.7
2017-Aug-15 16:31N 37°56' E 023°37'612.6
2017-Aug-15 16:01N 37°51' E 023°32'713.1
2017-Aug-15 15:31N 37°47' E 023°26'2 3.0
2017-Aug-15 14:53N 37°45' E 023°26'1 3.2
2017-Aug-15 14:31N 37°46' E 023°25'612.9
2017-Aug-15 14:00N 37°50' E 023°31'713.1
2017-Aug-15 13:30N 37°55' E 023°36'2 4.8
2017-Aug-15 13:00N 37°57' E 023°38'0 0.1
2017-Aug-15 12:31N 37°57' E 023°38'510.9
2017-Aug-15 12:01N 37°53' E 023°34'713.1
2017-Aug-15 11:31N 37°48' E 023°28'4 7.5
2017-Aug-15 11:00N 37°45' E 023°25'1 2.5
2017-Aug-15 10:30N 37°46' E 023°25'613.0
2017-Aug-15 10:01N 37°50' E 023°31'713.1
2017-Aug-15 09:30N 37°55' E 023°36'2 4.9
2017-Aug-15 09:01N 37°57' E 023°38'1 2.9
2017-Aug-15 08:30N 37°56' E 023°37'612.3
2017-Aug-15 08:01N 37°51' E 023°33'612.8
2017-Aug-15 07:30N 37°47' E 023°26'2 4.6
2017-Aug-15 07:00N 37°45' E 023°26'2 4.2
2017-Aug-15 06:30N 37°47' E 023°26'612.8
2017-Aug-15 06:00N 37°51' E 023°32'612.9
2017-Aug-15 05:30N 37°56' E 023°37'1 2.3
2017-Aug-15 05:00N 37°57' E 023°38'0 0.0
2017-Aug-15 04:31N 37°57' E 023°38'0 0.0
2017-Aug-14 16:56N 37°57' E 023°38'2 3.6
2017-Aug-14 16:31N 37°56' E 023°37'713.3
2017-Aug-14 16:01N 37°51' E 023°32'612.9
2017-Aug-14 15:31N 37°46' E 023°25'2 3.2
2017-Aug-14 14:58N 37°45' E 023°26'2 5.3
2017-Aug-14 14:30N 37°47' E 023°27'613.0
2017-Aug-14 14:00N 37°51' E 023°33'612.6
2017-Aug-14 13:30N 37°56' E 023°37'1 1.8
2017-Aug-14 13:01N 37°57' E 023°38'1 1.0
2017-Aug-14 12:31N 37°56' E 023°38'612.7
2017-Aug-14 12:01N 37°51' E 023°33'713.1
2017-Aug-14 11:30N 37°47' E 023°26'3 5.3
2017-Aug-14 11:00N 37°45' E 023°25'3 6.3
2017-Aug-14 10:30N 37°48' E 023°27'613.0
2017-Aug-14 10:01N 37°52' E 023°33'612.2
2017-Aug-14 09:30N 37°57' E 023°38'0 0.6
2017-Aug-14 09:00N 37°57' E 023°38'3 6.3
2017-Aug-14 08:30N 37°54' E 023°36'612.7
2017-Aug-14 08:01N 37°50' E 023°31'612.3
2017-Aug-14 07:31N 37°45' E 023°25'1 1.7
2017-Aug-14 07:00N 37°45' E 023°25'2 4.4
2017-Aug-14 06:30N 37°47' E 023°26'613.1
2017-Aug-14 06:01N 37°51' E 023°32'613.0
2017-Aug-14 05:30N 37°56' E 023°37'1 2.2
2017-Aug-14 05:00N 37°57' E 023°38'0 0.0
2017-Aug-14 04:31N 37°57' E 023°38'0 0.0
2017-Aug-13 20:12N 37°57' E 023°38'0 0.3
2017-Aug-13 20:00N 37°57' E 023°38'611.4
2017-Aug-13 19:30N 37°52' E 023°34'612.8
2017-Aug-13 19:00N 37°48' E 023°28'4 7.3
2017-Aug-13 18:30N 37°45' E 023°25'1 1.6
2017-Aug-13 18:00N 37°45' E 023°25'612.6
2017-Aug-13 17:30N 37°50' E 023°30'713.2
2017-Aug-13 17:00N 37°55' E 023°36'3 5.9
2017-Aug-13 16:30N 37°57' E 023°39'4 7.4
2017-Aug-13 16:00N 37°54' E 023°35'612.9
2017-Aug-13 15:30N 37°49' E 023°30'611.5
2017-Aug-13 15:01N 37°45' E 023°25'0 0.5
2017-Aug-13 14:30N 37°45' E 023°26'2 4.2
2017-Aug-13 14:00N 37°47' E 023°26'712.9
2017-Aug-13 13:30N 37°51' E 023°32'612.9
2017-Aug-13 13:00N 37°56' E 023°37'1 2.2
2017-Aug-13 12:30N 37°57' E 023°38'0 0.8
2017-Aug-13 12:00N 37°57' E 023°38'612.5
2017-Aug-13 11:30N 37°52' E 023°33'713.1
2017-Aug-13 11:00N 37°47' E 023°27'3 5.7
2017-Aug-13 10:30N 37°45' E 023°25'0 0.0
2017-Aug-13 10:00N 37°45' E 023°25'4 8.6
2017-Aug-13 09:30N 37°48' E 023°29'713.0
2017-Aug-13 09:00N 37°53' E 023°34'510.1
2017-Aug-13 08:30N 37°57' E 023°38'0 0.0
2017-Aug-13 08:00N 37°57' E 023°38'0 0.0
2017-Aug-13 07:30N 37°57' E 023°38'0 0.0
2017-Aug-12 17:35N 37°57' E 023°38'0 0.1
2017-Aug-12 17:30N 37°57' E 023°38'4 7.6
2017-Aug-12 17:00N 37°54' E 023°35'613.0
2017-Aug-12 16:31N 37°49' E 023°30'611.3
2017-Aug-12 16:00N 37°45' E 023°25'0 0.5
2017-Aug-12 15:30N 37°45' E 023°26'4 7.7
2017-Aug-12 15:00N 37°48' E 023°28'713.0
2017-Aug-12 14:30N 37°53' E 023°34'511.0
2017-Aug-12 14:00N 37°57' E 023°39'0 0.0
2017-Aug-12 13:30N 37°57' E 023°39'2 4.6
2017-Aug-12 13:00N 37°55' E 023°36'713.0
2017-Aug-12 12:30N 37°50' E 023°31'713.0
2017-Aug-12 12:00N 37°46' E 023°25'1 2.7
2017-Aug-12 11:30N 37°45' E 023°26'2 4.9
2017-Aug-12 11:00N 37°47' E 023°27'613.0
2017-Aug-12 10:30N 37°52' E 023°32'612.7
2017-Aug-12 10:00N 37°56' E 023°38'1 1.6
2017-Aug-12 09:30N 37°57' E 023°39'0 0.0
2017-Aug-12 09:00N 37°57' E 023°39'2 4.1
2017-Aug-12 08:30N 37°55' E 023°36'713.1
2017-Aug-12 08:00N 37°50' E 023°31'713.2
2017-Aug-12 07:30N 37°46' E 023°25'1 2.8
2017-Aug-12 07:00N 37°45' E 023°26'3 5.9
2017-Aug-12 06:30N 37°47' E 023°27'612.8
2017-Aug-12 06:00N 37°52' E 023°33'612.4
2017-Aug-12 05:30N 37°57' E 023°38'0 0.7
2017-Aug-12 05:00N 37°57' E 023°39'0 0.0
2017-Aug-12 04:30N 37°57' E 023°39'0 0.0
2017-Aug-11 17:35N 37°57' E 023°39'0 0.0
2017-Aug-11 17:30N 37°57' E 023°39'3 5.6
2017-Aug-11 17:00N 37°55' E 023°36'612.8
2017-Aug-11 16:30N 37°50' E 023°31'612.8
2017-Aug-11 16:00N 37°46' E 023°25'1 2.1
2017-Aug-11 15:30N 37°45' E 023°25'2 4.4
2017-Aug-11 14:58N 37°47' E 023°26'1313.1
2017-Aug-11 14:00N 37°56' E 023°37'1 2.1
2017-Aug-11 13:30N 37°57' E 023°38'0 0.6
2017-Aug-11 13:00N 37°57' E 023°38'611.8
2017-Aug-11 12:30N 37°52' E 023°33'612.7
2017-Aug-11 12:00N 37°48' E 023°28'3 6.7
2017-Aug-11 11:30N 37°45' E 023°26'0 0.0
2017-Aug-11 11:00N 37°45' E 023°26'5 9.5
2017-Aug-11 10:30N 37°48' E 023°29'713.3
2017-Aug-11 10:00N 37°54' E 023°34'5 9.1
2017-Aug-11 09:30N 37°57' E 023°38'0 0.0
2017-Aug-11 09:00N 37°57' E 023°38'3 5.8
2017-Aug-11 08:30N 37°55' E 023°36'612.4
2017-Aug-11 08:00N 37°50' E 023°31'612.5
2017-Aug-11 07:30N 37°46' E 023°25'1 2.5
2017-Aug-11 07:00N 37°45' E 023°25'2 4.3
2017-Aug-11 06:30N 37°47' E 023°26'613.0
2017-Aug-11 06:00N 37°51' E 023°33'713.1
2017-Aug-11 05:30N 37°56' E 023°37'1 2.2
2017-Aug-11 05:00N 37°57' E 023°38'0 0.0
2017-Aug-11 04:30N 37°57' E 023°38'0 0.0
2017-Aug-10 17:19N 37°57' E 023°38'0 0.5
2017-Aug-10 17:00N 37°57' E 023°38'612.2
2017-Aug-10 16:30N 37°52' E 023°33'613.0
2017-Aug-10 16:00N 37°48' E 023°27'3 6.4
2017-Aug-10 15:30N 37°45' E 023°25'0 0.0
2017-Aug-10 15:00N 37°45' E 023°25'4 7.9
2017-Aug-10 14:30N 37°48' E 023°28'613.0
2017-Aug-10 14:00N 37°53' E 023°34'510.9
2017-Aug-10 13:30N 37°57' E 023°39'0 0.1
2017-Aug-10 13:00N 37°57' E 023°39'611.0
2017-Aug-10 12:30N 37°53' E 023°34'612.8
2017-Aug-10 12:00N 37°48' E 023°28'4 6.6
2017-Aug-10 11:25N 37°45' E 023°26'1 1.8
2017-Aug-10 11:00N 37°45' E 023°25'612.7
2017-Aug-10 10:30N 37°50' E 023°31'713.1
2017-Aug-10 10:00N 37°55' E 023°36'3 5.8
2017-Aug-10 09:30N 37°57' E 023°38'0 0.0
2017-Aug-10 09:00N 37°57' E 023°38'5 9.7
2017-Aug-10 08:30N 37°53' E 023°35'612.4
2017-Aug-10 08:00N 37°49' E 023°29'5 9.4
2017-Aug-10 07:30N 37°45' E 023°25'0 0.1
2017-Aug-10 07:00N 37°45' E 023°25'2 4.5
2017-Aug-10 06:30N 37°47' E 023°26'613.0
2017-Aug-10 06:00N 37°51' E 023°32'613.0
2017-Aug-10 05:30N 37°56' E 023°37'1 2.1
2017-Aug-10 05:00N 37°57' E 023°38'0 0.0
2017-Aug-10 04:30N 37°57' E 023°38'0 0.0
2017-Aug-09 17:04N 37°57' E 023°38'0 0.0
2017-Aug-09 17:00N 37°57' E 023°38'3 5.3
2017-Aug-09 16:30N 37°55' E 023°36'612.8
2017-Aug-09 16:00N 37°50' E 023°31'612.7
2017-Aug-09 15:30N 37°46' E 023°25'1 2.7
2017-Aug-09 15:00N 37°45' E 023°25'2 3.6
2017-Aug-09 14:30N 37°46' E 023°26'613.0
2017-Aug-09 14:00N 37°51' E 023°32'713.0
2017-Aug-09 13:30N 37°56' E 023°37'2 3.1
2017-Aug-09 13:00N 37°57' E 023°39'2 3.0
2017-Aug-09 12:30N 37°56' E 023°37'612.6
2017-Aug-09 12:00N 37°51' E 023°32'612.7
2017-Aug-09 11:30N 37°47' E 023°26'2 4.3
2017-Aug-09 11:00N 37°45' E 023°25'2 3.9
2017-Aug-09 10:30N 37°47' E 023°26'612.9
2017-Aug-09 10:00N 37°51' E 023°32'612.9
2017-Aug-09 09:30N 37°56' E 023°37'2 3.1
2017-Aug-09 09:00N 37°57' E 023°39'1 2.9
2017-Aug-09 08:30N 37°56' E 023°37'612.7
2017-Aug-09 08:00N 37°51' E 023°33'612.6
2017-Aug-09 07:30N 37°47' E 023°26'2 3.3
2017-Aug-09 06:51N 37°45' E 023°25'2 7.2
2017-Aug-09 06:30N 37°47' E 023°27'612.9
2017-Aug-09 06:00N 37°51' E 023°33'612.9
2017-Aug-09 05:30N 37°56' E 023°38'1 1.4
2017-Aug-09 05:00N 37°57' E 023°38'0 0.0
2017-Aug-09 04:30N 37°57' E 023°38'0 0.0
2017-Aug-08 17:16N 37°57' E 023°38'0 0.7
2017-Aug-08 17:00N 37°57' E 023°38'510.5
2017-Aug-08 16:30N 37°53' E 023°34'612.9
2017-Aug-08 16:00N 37°48' E 023°28'4 3.4
2017-Aug-08 14:51N 37°45' E 023°25'2 6.0
2017-Aug-08 14:30N 37°47' E 023°26'713.1
2017-Aug-08 14:00N 37°51' E 023°33'713.2
2017-Aug-08 13:30N 37°56' E 023°37'1 1.9
2017-Aug-08 13:00N 37°57' E 023°38'4 7.4
2017-Aug-08 12:30N 37°54' E 023°35'612.4
2017-Aug-08 12:00N 37°49' E 023°30'611.9
2017-Aug-08 11:30N 37°45' E 023°25'1 1.0
2017-Aug-08 10:59N 37°45' E 023°25'4 8.4
2017-Aug-08 10:30N 37°48' E 023°29'713.1
2017-Aug-08 10:00N 37°53' E 023°34'510.4
2017-Aug-08 09:30N 37°57' E 023°39'0 0.0
2017-Aug-08 09:00N 37°57' E 023°39'3 6.7
2017-Aug-08 08:30N 37°54' E 023°35'612.4
2017-Aug-08 08:00N 37°49' E 023°31'611.9
2017-Aug-08 07:30N 37°46' E 023°25'1 1.6
2017-Aug-08 06:49N 37°45' E 023°25'2 5.4
2017-Aug-08 06:30N 37°46' E 023°26'713.2
2017-Aug-08 06:00N 37°51' E 023°32'713.3
2017-Aug-08 05:30N 37°56' E 023°37'1 2.8
2017-Aug-08 05:00N 37°57' E 023°38'0 0.0
2017-Aug-08 04:30N 37°57' E 023°38'0 0.0
2017-Aug-07 17:16N 37°57' E 023°38'0 0.7
2017-Aug-07 17:01N 37°57' E 023°38'612.4
2017-Aug-07 16:31N 37°52' E 023°33'613.0
2017-Aug-07 16:01N 37°48' E 023°27'3 6.2
2017-Aug-07 15:31N 37°45' E 023°26'0 0.0
2017-Aug-07 15:01N 37°45' E 023°26'4 8.2
2017-Aug-07 14:31N 37°48' E 023°29'713.0
2017-Aug-07 14:01N 37°53' E 023°34'510.3
2017-Aug-07 13:31N 37°57' E 023°39'1 1.1
2017-Aug-07 13:00N 37°56' E 023°38'612.7
2017-Aug-07 12:31N 37°51' E 023°33'713.1
2017-Aug-07 12:01N 37°47' E 023°27'3 5.0
2017-Aug-07 11:28N 37°45' E 023°26'2 3.5
2017-Aug-07 11:00N 37°46' E 023°26'612.9
2017-Aug-07 10:31N 37°50' E 023°32'612.9
2017-Aug-07 10:01N 37°56' E 023°37'2 3.5
2017-Aug-07 09:30N 37°57' E 023°38'0 0.6
2017-Aug-07 09:00N 37°57' E 023°38'612.7
2017-Aug-07 08:31N 37°52' E 023°33'713.2
2017-Aug-07 08:01N 37°47' E 023°27'3 5.4
2017-Aug-07 07:30N 37°45' E 023°25'0 0.0
2017-Aug-07 07:00N 37°45' E 023°25'4 7.3
2017-Aug-07 06:31N 37°48' E 023°28'612.8
2017-Aug-07 06:00N 37°52' E 023°34'611.6
2017-Aug-07 05:31N 37°57' E 023°38'0 0.1
2017-Aug-07 05:01N 37°57' E 023°38'0 0.0
2017-Aug-07 04:30N 37°57' E 023°38'0 0.0
2017-Aug-06 20:11N 37°57' E 023°38'0 0.0
2017-Aug-06 20:01N 37°57' E 023°38'4 8.8
2017-Aug-06 19:31N 37°53' E 023°35'612.8
2017-Aug-06 19:00N 37°49' E 023°29'5 9.8
2017-Aug-06 18:30N 37°45' E 023°26'0 0.0
2017-Aug-06 17:58N 37°45' E 023°26'0 0.3
2017-Aug-06 17:31N 37°45' E 023°25'  

Dump ship's entire track history